Terminal Aerodrome Forecast
Issued by NWS

Current Version | Previous Version | Graphics & Text | Print | Product List | Glossary On
Versions: 1 2 3 4 5 6 7 8 9 10 11 12 13 14 15 16 17 18
000
FTUS41 KPBZ 201724
TAFMGW
TAF
KMGW 201724Z 2018/2118 36003KT P6SM SCT035
     FM210000 12009KT P6SM BKN090
     FM211200 14009KT P6SM VCSH BKN090
     FM211500 15009KT P6SM -SHRA VCTS BKN045CB=

USA.gov is the U.S. government's official web portal to all federal, state and local government web resources and services.